Time;durP1;ratioP1;P1;durP2;ratioP2;P2;SDS_P1;SDS_P2;PMS_P1;PMS_P2;Temp;Humidity;BMP_temperature;BMP_pressure;BME280_temperature;BME280_humidity;BME280_pressure;Samples;Min_cycle;Max_cycle;Signal;HPM_P1;HPM_P2
2023/04/19 00:00:42;;;;;;;100.05;56.60;;;16.10;69.60;;;;;;4989871;28;92625;-83
2023/04/19 00:03:09;;;;;;;100.10;57.08;;;16.10;69.60;;;;;;4996829;28;89384;-83
2023/04/19 00:05:37;;;;;;;100.20;57.15;;;16.10;69.70;;;;;;4996805;28;93842;-83
2023/04/19 00:08:03;;;;;;;99.53;57.42;;;16.10;69.70;;;;;;4993569;28;91176;-78
2023/04/19 00:10:29;;;;;;;99.88;57.22;;;16.10;69.80;;;;;;4995495;28;89196;-77
2023/04/19 00:12:54;;;;;;;100.20;57.10;;;16.00;69.60;;;;;;5001470;28;89720;-79
2023/04/19 00:15:20;;;;;;;99.90;56.75;;;16.10;69.80;;;;;;5000154;28;90031;-78
2023/04/19 00:17:46;;;;;;;99.00;57.10;;;16.10;69.80;;;;;;4994402;28;90438;-82
2023/04/19 00:20:12;;;;;;;99.30;57.13;;;16.00;69.60;;;;;;4999981;28;89421;-78
2023/04/19 00:22:38;;;;;;;100.05;57.05;;;16.00;69.60;;;;;;5002652;28;91608;-77
2023/04/19 00:25:04;;;;;;;99.05;56.83;;;16.00;69.60;;;;;;5002527;28;96410;-78
2023/04/19 00:27:29;;;;;;;101.57;57.17;;;16.00;69.60;;;;;;4997815;28;94573;-78
2023/04/19 00:29:56;;;;;;;100.07;57.42;;;16.00;69.60;;;;;;5003220;28;90912;-78
2023/04/19 00:32:22;;;;;;;101.15;57.58;;;16.00;69.60;;;;;;5000721;28;89470;-80
2023/04/19 00:34:47;;;;;;;99.80;57.67;;;16.00;69.60;;;;;;4996643;28;91322;-80
2023/04/19 00:37:13;;;;;;;98.80;57.28;;;16.00;69.60;;;;;;4993691;28;92631;-78
2023/04/19 00:39:39;;;;;;;98.75;56.50;;;16.00;69.60;;;;;;4998074;28;89545;-78
2023/04/19 00:42:04;;;;;;;99.63;56.92;;;16.00;69.60;;;;;;5000574;28;89862;-78
2023/04/19 00:44:30;;;;;;;98.10;56.50;;;16.00;69.60;;;;;;5005918;27;92840;-78
2023/04/19 00:46:56;;;;;;;100.15;57.38;;;15.90;69.50;;;;;;4992158;28;89327;-78
2023/04/19 00:49:22;;;;;;;98.97;56.88;;;15.90;69.50;;;;;;5005093;28;90160;-79
2023/04/19 00:51:49;;;;;;;99.10;56.90;;;15.90;69.60;;;;;;4992014;28;91554;-79
2023/04/19 00:54:16;;;;;;;99.85;57.08;;;15.90;69.50;;;;;;5003333;27;95222;-79
2023/04/19 00:56:43;;;;;;;100.53;57.00;;;15.90;69.50;;;;;;4989199;28;93367;-80
2023/04/19 00:59:08;;;;;;;100.00;57.28;;;15.90;69.60;;;;;;4997376;28;89514;-77
2023/04/19 01:01:34;;;;;;;99.30;56.88;;;15.90;69.60;;;;;;4986955;28;90095;-78
2023/04/19 01:04:00;;;;;;;98.88;57.20;;;15.90;69.60;;;;;;4994406;28;93551;-78
2023/04/19 01:06:28;;;;;;;99.57;57.03;;;15.90;69.60;;;;;;4991688;28;93546;-78
2023/04/19 01:08:54;;;;;;;100.10;56.88;;;15.90;69.60;;;;;;4989969;28;90038;-78
2023/04/19 01:11:21;;;;;;;98.75;56.75;;;15.90;69.60;;;;;;4988849;28;88694;-79
2023/04/19 01:13:47;;;;;;;98.80;56.67;;;15.80;69.50;;;;;;4988547;28;90195;-79
2023/04/19 01:16:13;;;;;;;98.60;57.17;;;15.80;69.50;;;;;;4999210;28;91098;-78
2023/04/19 01:18:39;;;;;;;99.80;56.67;;;15.80;69.60;;;;;;4995341;28;90854;-79
2023/04/19 01:21:11;;;;;;;98.75;56.63;;;15.80;69.50;;;;;;4996148;28;89586;-78
2023/04/19 01:23:45;;;;;;;98.90;56.97;;;15.80;69.50;;;;;;4991206;28;90635;-79
2023/04/19 01:26:11;;;;;;;99.63;57.22;;;15.80;69.50;;;;;;4987549;28;91982;-78
2023/04/19 01:28:36;;;;;;;99.55;57.53;;;15.80;69.60;;;;;;4987304;28;91218;-78
2023/04/19 01:31:02;;;;;;;100.03;57.35;;;15.80;69.60;;;;;;4998840;28;89272;-78
2023/04/19 01:33:28;;;;;;;100.47;56.95;;;15.80;69.50;;;;;;4998155;28;92747;-78
2023/04/19 01:35:53;;;;;;;99.57;57.05;;;15.70;69.50;;;;;;4995778;28;94213;-79
2023/04/19 01:38:19;;;;;;;100.45;57.08;;;15.70;69.60;;;;;;4990407;28;89746;-78
2023/04/19 01:40:45;;;;;;;98.40;57.05;;;15.70;69.60;;;;;;4991520;28;89971;-81
2023/04/19 01:43:16;;;;;;;98.10;56.47;;;15.70;69.50;;;;;;4993055;28;93446;-79
2023/04/19 01:45:41;;;;;;;97.97;56.47;;;15.70;69.50;;;;;;5008424;27;93473;-81
2023/04/19 01:48:07;;;;;;;98.25;56.88;;;15.70;69.60;;;;;;4991783;28;90276;-76
2023/04/19 01:50:33;;;;;;;99.45;57.35;;;15.70;69.60;;;;;;4996815;28;90996;-81
2023/04/19 01:52:59;;;;;;;99.10;56.85;;;15.70;69.50;;;;;;4995914;28;90439;-79
2023/04/19 01:55:25;;;;;;;98.88;57.00;;;15.70;69.90;;;;;;4998170;27;90090;-77
2023/04/19 01:57:52;;;;;;;98.50;56.70;;;15.70;69.60;;;;;;4990428;28;90067;-76
2023/04/19 02:00:21;;;;;;;97.78;56.63;;;15.70;69.60;;;;;;4992713;28;89323;-77
2023/04/19 02:02:47;;;;;;;99.95;57.22;;;15.60;69.70;;;;;;4990908;28;92988;-77
2023/04/19 02:05:13;;;;;;;99.63;56.97;;;15.60;69.50;;;;;;4992132;28;92353;-79
2023/04/19 02:07:39;;;;;;;99.55;57.38;;;15.60;69.60;;;;;;4991931;28;90674;-76
2023/04/19 02:10:05;;;;;;;100.43;57.38;;;15.60;69.60;;;;;;4999786;28;89474;-77
2023/04/19 02:12:34;;;;;;;98.78;56.38;;;15.60;69.50;;;;;;4994801;28;91374;-77
2023/04/19 02:15:02;;;;;;;99.57;57.08;;;15.60;69.60;;;;;;5006305;27;93246;-76
2023/04/19 02:17:29;;;;;;;99.05;57.38;;;15.60;69.80;;;;;;4997784;28;92278;-80
2023/04/19 02:19:54;;;;;;;97.85;56.42;;;15.60;69.60;;;;;;4998754;28;89683;-77
2023/04/19 02:22:20;;;;;;;99.15;56.92;;;15.60;69.60;;;;;;4998466;28;93390;-76
2023/04/19 02:24:48;;;;;;;98.25;56.42;;;15.60;69.60;;;;;;4999639;28;93343;-77
2023/04/19 02:27:14;;;;;;;99.40;56.83;;;15.50;69.70;;;;;;5000781;28;90148;-77
2023/04/19 02:29:39;;;;;;;98.68;56.65;;;15.50;69.60;;;;;;5012551;28;90227;-78
2023/04/19 02:32:05;;;;;;;97.97;56.22;;;15.50;69.70;;;;;;4997740;28;93809;-77
2023/04/19 02:34:35;;;;;;;99.18;56.88;;;15.50;69.70;;;;;;4997266;28;89965;-78
2023/04/19 02:37:01;;;;;;;97.47;56.78;;;15.50;69.60;;;;;;4997654;28;89892;-76
2023/04/19 02:39:26;;;;;;;99.00;57.00;;;15.50;69.70;;;;;;5000755;28;89815;-79
2023/04/19 02:41:52;;;;;;;99.28;57.10;;;15.50;69.70;;;;;;4998781;28;90218;-76
2023/04/19 02:44:18;;;;;;;98.90;56.88;;;15.50;69.70;;;;;;5000510;28;92619;-77
2023/04/19 02:46:51;;;;;;;97.63;56.13;;;15.50;69.70;;;;;;5009409;27;89494;-79
2023/04/19 02:49:18;;;;;;;98.95;56.33;;;15.50;69.60;;;;;;4993285;28;89725;-80
2023/04/19 02:51:43;;;;;;;98.43;56.45;;;15.40;69.50;;;;;;4998748;28;92758;-81
2023/04/19 02:54:10;;;;;;;99.35;56.88;;;15.50;69.60;;;;;;4995666;28;92959;-76
2023/04/19 02:56:35;;;;;;;98.30;56.60;;;15.40;69.60;;;;;;4994330;28;92249;-76
2023/04/19 02:59:01;;;;;;;99.47;57.28;;;15.40;69.60;;;;;;4997974;28;89514;-78
2023/04/19 03:01:27;;;;;;;98.07;56.53;;;15.40;69.60;;;;;;5001811;28;93222;-77
2023/04/19 03:03:53;;;;;;;98.25;56.88;;;15.40;69.60;;;;;;4999332;28;92735;-79
2023/04/19 03:06:18;;;;;;;97.82;56.80;;;15.40;69.70;;;;;;4998839;28;89860;-76
2023/04/19 03:08:44;;;;;;;99.45;56.92;;;15.40;69.60;;;;;;4996081;28;91556;-76
2023/04/19 03:11:15;;;;;;;99.47;56.70;;;15.40;69.60;;;;;;4996124;28;92771;-77
2023/04/19 03:13:40;;;;;;;97.97;56.97;;;15.40;69.70;;;;;;5001164;28;89805;-76
2023/04/19 03:16:07;;;;;;;97.63;56.60;;;15.40;69.60;;;;;;4995694;28;89942;-76
2023/04/19 03:18:34;;;;;;;98.47;56.75;;;15.30;69.60;;;;;;4999197;28;90516;-76
2023/04/19 03:21:00;;;;;;;97.10;56.42;;;15.40;69.70;;;;;;4997788;28;95398;-78
2023/04/19 03:23:26;;;;;;;98.07;56.53;;;15.30;69.60;;;;;;4994600;28;93334;-76
2023/04/19 03:25:52;;;;;;;99.30;56.75;;;15.40;69.70;;;;;;4992026;28;94371;-78
2023/04/19 03:28:18;;;;;;;97.35;56.20;;;15.30;69.60;;;;;;4999865;28;89694;-76
2023/04/19 03:30:43;;;;;;;97.75;56.50;;;15.30;69.60;;;;;;4991584;28;92554;-78
2023/04/19 03:33:09;;;;;;;99.20;57.03;;;15.30;69.60;;;;;;4989289;28;89850;-77
2023/04/19 03:35:35;;;;;;;99.57;56.40;;;15.30;69.60;;;;;;4989314;28;90655;-79
2023/04/19 03:38:00;;;;;;;99.72;56.70;;;15.30;69.70;;;;;;4987408;28;89598;-78
2023/04/19 03:40:26;;;;;;;97.85;56.10;;;15.30;69.70;;;;;;4985580;28;93299;-78
2023/04/19 03:42:52;;;;;;;98.45;56.75;;;15.30;69.60;;;;;;5007849;27;92734;-76
2023/04/19 03:45:17;;;;;;;97.45;56.30;;;15.20;69.60;;;;;;4990985;28;90551;-77
2023/04/19 03:47:43;;;;;;;98.97;56.78;;;15.20;69.60;;;;;;4986363;28;90227;-78
2023/04/19 03:50:09;;;;;;;99.45;56.72;;;15.20;69.90;;;;;;4994484;27;92683;-80
2023/04/19 03:52:35;;;;;;;99.07;56.75;;;15.30;69.70;;;;;;4989244;28;92390;-79
2023/04/19 03:55:00;;;;;;;98.18;56.33;;;15.20;69.60;;;;;;4990441;28;90084;-81
2023/04/19 03:57:26;;;;;;;98.28;56.53;;;15.20;69.70;;;;;;4993653;28;91655;-76
2023/04/19 03:59:52;;;;;;;98.43;56.78;;;15.20;69.60;;;;;;4995047;28;93322;-79
2023/04/19 04:02:17;;;;;;;98.43;56.60;;;15.20;69.60;;;;;;4993307;28;90194;-79
2023/04/19 04:04:43;;;;;;;98.35;56.80;;;15.20;69.70;;;;;;4997936;28;89799;-80
2023/04/19 04:07:09;;;;;;;98.60;56.50;;;15.20;69.70;;;;;;5014102;27;90021;-77
2023/04/19 04:09:35;;;;;;;98.20;56.38;;;15.20;69.80;;;;;;4992471;28;91056;-80
2023/04/19 04:12:01;;;;;;;98.55;56.60;;;15.20;69.80;;;;;;4995250;28;94486;-77
2023/04/19 04:14:27;;;;;;;97.82;56.53;;;15.20;69.70;;;;;;4995870;28;92452;-78
2023/04/19 04:16:53;;;;;;;98.63;57.17;;;15.20;69.80;;;;;;4991416;28;90138;-77
2023/04/19 04:19:20;;;;;;;98.63;57.15;;;15.10;69.70;;;;;;4990918;28;93099;-77
2023/04/19 04:21:46;;;;;;;96.97;55.92;;;15.10;69.90;;;;;;5004478;27;94650;-76
2023/04/19 04:24:12;;;;;;;99.25;56.67;;;15.20;69.80;;;;;;4994895;28;89772;-77
2023/04/19 04:26:38;;;;;;;97.20;56.38;;;15.20;69.90;;;;;;5005591;27;90033;-77
2023/04/19 04:29:04;;;;;;;97.88;56.42;;;15.10;69.90;;;;;;4998095;28;93824;-76
2023/04/19 04:31:30;;;;;;;97.88;56.53;;;15.10;69.90;;;;;;5010094;27;92535;-78
2023/04/19 04:33:56;;;;;;;97.28;56.08;;;15.10;69.90;;;;;;4994945;28;90920;-77
2023/04/19 04:36:22;;;;;;;97.65;56.90;;;15.10;69.90;;;;;;4991280;28;90017;-80
2023/04/19 04:38:48;;;;;;;97.78;56.35;;;15.10;70.00;;;;;;4997660;28;93234;-78
2023/04/19 04:41:15;;;;;;;97.60;56.20;;;15.10;70.00;;;;;;4991764;28;93532;-76
2023/04/19 04:43:41;;;;;;;97.75;56.08;;;15.10;70.00;;;;;;4994273;28;90006;-77
2023/04/19 04:46:07;;;;;;;98.95;56.60;;;15.10;69.90;;;;;;5005559;27;93789;-81
2023/04/19 04:48:33;;;;;;;98.30;56.97;;;15.10;70.00;;;;;;4993344;28;92372;-80
2023/04/19 04:50:59;;;;;;;97.28;56.30;;;15.10;70.00;;;;;;5002660;27;94221;-77
2023/04/19 04:53:25;;;;;;;96.53;56.05;;;15.00;70.00;;;;;;4996979;28;90988;-81
2023/04/19 04:55:52;;;;;;;97.05;55.70;;;15.10;70.00;;;;;;4994050;28;89972;-77
2023/04/19 04:58:18;;;;;;;97.75;56.17;;;15.10;70.00;;;;;;5003271;27;95126;-78
2023/04/19 05:00:44;;;;;;;98.03;56.50;;;15.10;70.00;;;;;;4996486;28;93476;-78
2023/04/19 05:03:10;;;;;;;98.53;56.72;;;15.00;69.90;;;;;;4993478;28;90318;-76
2023/04/19 05:05:36;;;;;;;99.95;57.85;;;15.00;69.90;;;;;;4993793;28;89714;-80
2023/04/19 05:08:02;;;;;;;97.97;56.63;;;15.00;69.90;;;;;;4990354;28;93116;-79
2023/04/19 05:10:27;;;;;;;97.15;56.63;;;15.00;69.90;;;;;;4986117;28;92006;-80
2023/04/19 05:12:53;;;;;;;97.95;57.03;;;15.00;70.00;;;;;;4985993;28;89897;-81
2023/04/19 05:15:19;;;;;;;98.90;56.97;;;15.00;69.90;;;;;;4992567;28;90493;-77
2023/04/19 05:17:44;;;;;;;98.88;56.55;;;15.00;69.70;;;;;;4996073;28;92536;-78
2023/04/19 05:20:11;;;;;;;98.20;56.88;;;15.00;69.90;;;;;;4994942;28;92794;-80
2023/04/19 05:22:37;;;;;;;98.85;56.55;;;15.00;69.90;;;;;;4996248;28;90472;-77
2023/04/19 05:25:03;;;;;;;97.85;56.50;;;15.00;70.00;;;;;;5000559;28;89956;-78
2023/04/19 05:27:29;;;;;;;98.10;56.47;;;15.00;70.00;;;;;;4996912;28;91806;-79
2023/04/19 05:29:54;;;;;;;101.38;56.60;;;15.00;70.50;;;;;;5000494;28;92552;-80
2023/04/19 05:32:20;;;;;;;101.43;57.28;;;15.00;71.70;;;;;;4996956;28;91132;-79
2023/04/19 05:34:46;;;;;;;100.68;57.53;;;15.00;72.30;;;;;;4997659;28;90161;-80
2023/04/19 05:37:11;;;;;;;100.13;56.58;;;15.00;71.40;;;;;;4994631;28;91308;-78
2023/04/19 05:39:37;;;;;;;102.43;56.72;;;15.00;71.10;;;;;;4998573;28;89095;-77
2023/04/19 05:42:03;;;;;;;98.60;56.33;;;15.00;71.40;;;;;;4993300;28;90522;-80
2023/04/19 05:44:28;;;;;;;99.32;56.80;;;15.00;71.10;;;;;;4997567;28;92133;-78
2023/04/19 05:46:54;;;;;;;100.47;56.78;;;15.00;71.00;;;;;;5018219;27;90796;-78
2023/04/19 05:49:20;;;;;;;99.65;56.60;;;15.00;71.10;;;;;;4995877;28;93326;-79
2023/04/19 05:51:45;;;;;;;99.68;56.28;;;15.00;71.10;;;;;;4997606;28;90046;-78
2023/04/19 05:54:13;;;;;;;101.35;56.83;;;15.00;71.20;;;;;;4996449;28;89577;-83
2023/04/19 05:56:39;;;;;;;101.82;56.05;;;15.00;71.50;;;;;;5002539;28;91534;-78
2023/04/19 05:59:05;;;;;;;98.88;56.65;;;15.00;71.70;;;;;;4994134;28;91339;-77
2023/04/19 06:01:31;;;;;;;98.68;55.72;;;15.00;71.60;;;;;;4992340;28;90779;-80
2023/04/19 06:03:57;;;;;;;99.95;56.10;;;15.00;71.70;;;;;;4993706;28;89072;-81
2023/04/19 06:06:23;;;;;;;98.97;56.75;;;15.00;72.00;;;;;;4994943;28;91670;-78
2023/04/19 06:08:49;;;;;;;100.10;56.22;;;15.00;72.60;;;;;;4994868;28;93096;-82
2023/04/19 06:11:15;;;;;;;101.85;56.38;;;15.00;72.50;;;;;;4992307;28;92572;-78
2023/04/19 06:13:42;;;;;;;100.75;56.75;;;15.00;72.50;;;;;;4991811;28;90196;-82
2023/04/19 06:16:08;;;;;;;100.03;56.72;;;15.10;73.30;;;;;;5000082;28;90244;-79
2023/04/19 06:18:33;;;;;;;103.28;56.80;;;15.10;74.30;;;;;;4997198;28;90314;-78
2023/04/19 06:20:59;;;;;;;99.90;57.00;;;15.10;74.60;;;;;;4991082;28;89683;-79
2023/04/19 06:23:25;;;;;;;103.07;57.05;;;15.10;75.00;;;;;;4994768;28;91016;-79
2023/04/19 06:25:51;;;;;;;99.20;56.67;;;15.10;75.20;;;;;;4991884;28;90005;-76
2023/04/19 06:28:17;;;;;;;101.38;57.13;;;15.10;75.10;;;;;;4994102;28;92045;-77
2023/04/19 06:30:43;;;;;;;101.88;56.67;;;15.20;74.70;;;;;;4995352;28;89685;-77
2023/04/19 06:33:09;;;;;;;103.32;56.33;;;15.20;74.50;;;;;;4999039;28;94032;-78
2023/04/19 06:35:35;;;;;;;103.00;57.10;;;15.20;75.20;;;;;;4997956;28;93600;-79
2023/04/19 06:38:01;;;;;;;102.18;56.90;;;15.20;75.10;;;;;;5000070;28;90249;-78
2023/04/19 06:40:30;;;;;;;103.13;56.85;;;15.10;75.20;;;;;;4999654;28;91226;-78
2023/04/19 06:42:56;;;;;;;104.97;57.45;;;15.20;75.40;;;;;;4997119;28;89556;-80
2023/04/19 06:45:22;;;;;;;108.90;57.33;;;15.20;75.30;;;;;;4998218;28;89932;-77
2023/04/19 06:47:47;;;;;;;103.35;57.13;;;15.20;75.60;;;;;;4999429;28;93110;-83
2023/04/19 06:50:13;;;;;;;102.22;57.50;;;15.20;75.70;;;;;;4997611;28;89596;-76
2023/04/19 06:52:38;;;;;;;103.07;57.40;;;15.20;75.80;;;;;;4996571;28;89599;-78
2023/04/19 06:55:06;;;;;;;103.40;57.40;;;15.20;75.70;;;;;;4999016;28;93121;-78
2023/04/19 06:57:32;;;;;;;101.15;56.55;;;15.20;75.80;;;;;;4999448;28;92621;-77
2023/04/19 06:59:57;;;;;;;102.93;57.08;;;15.30;75.90;;;;;;4996935;28;90759;-77
2023/04/19 07:02:23;;;;;;;106.28;57.15;;;15.30;76.00;;;;;;4996327;28;89510;-76
2023/04/19 07:04:49;;;;;;;104.93;56.90;;;15.30;75.60;;;;;;4999316;28;92606;-76
2023/04/19 07:07:15;;;;;;;105.88;57.20;;;15.30;75.90;;;;;;4995260;28;89361;-77
2023/04/19 07:09:41;;;;;;;103.78;57.47;;;15.30;76.10;;;;;;4995040;28;90061;-77
2023/04/19 07:12:07;;;;;;;106.63;57.05;;;15.30;76.10;;;;;;5001426;28;89983;-76
2023/04/19 07:14:32;;;;;;;107.97;57.33;;;15.30;76.40;;;;;;4995042;28;90550;-78
2023/04/19 07:16:58;;;;;;;103.15;56.88;;;15.30;76.40;;;;;;4994291;28;93437;-79
2023/04/19 07:19:24;;;;;;;100.32;56.92;;;15.30;76.40;;;;;;4994375;28;89957;-80
2023/04/19 07:21:50;;;;;;;102.03;57.35;;;15.30;76.40;;;;;;4986005;28;89972;-80
2023/04/19 07:24:15;;;;;;;106.53;57.20;;;15.30;76.60;;;;;;4984517;28;92592;-81
2023/04/19 07:26:41;;;;;;;104.72;57.05;;;15.30;76.40;;;;;;4990383;28;94028;-76
2023/04/19 07:29:07;;;;;;;102.20;57.17;;;15.30;76.60;;;;;;4991624;28;90078;-78
2023/04/19 07:31:33;;;;;;;101.50;57.05;;;15.40;76.80;;;;;;4992219;28;93948;-79
2023/04/19 07:33:58;;;;;;;102.53;56.90;;;15.40;77.00;;;;;;4992897;28;93064;-77
2023/04/19 07:36:24;;;;;;;102.18;56.55;;;15.40;77.10;;;;;;4992529;28;92869;-79
2023/04/19 07:38:50;;;;;;;101.53;57.03;;;15.40;77.10;;;;;;4993765;28;89441;-81
2023/04/19 07:41:16;;;;;;;100.60;56.53;;;15.40;77.10;;;;;;4992913;28;89452;-77
2023/04/19 07:43:42;;;;;;;102.15;56.78;;;15.40;77.40;;;;;;4994851;28;90202;-78
2023/04/19 07:46:09;;;;;;;102.60;56.35;;;15.50;77.00;;;;;;4995099;28;92893;-77
2023/04/19 07:48:35;;;;;;;104.32;57.13;;;15.50;76.30;;;;;;4994105;28;90497;-77
2023/04/19 07:51:11;;;;;;;105.15;56.90;;;15.50;76.10;;;;;;4992354;28;89877;-78
2023/04/19 07:53:38;;;;;;;107.40;57.65;;;15.50;76.40;;;;;;4994749;28;91116;-79
2023/04/19 07:56:05;;;;;;;107.82;57.65;;;15.50;76.60;;;;;;4991338;28;93717;-79
2023/04/19 07:58:30;;;;;;;106.97;58.58;;;15.50;76.80;;;;;;4992004;28;92314;-79
2023/04/19 08:00:56;;;;;;;106.15;57.60;;;15.60;76.90;;;;;;4995209;28;89845;-79
2023/04/19 08:03:21;;;;;;;105.70;58.42;;;15.60;77.00;;;;;;4991098;28;93998;-81
2023/04/19 08:05:47;;;;;;;106.03;59.03;;;15.60;77.20;;;;;;4994050;28;93299;-78
2023/04/19 08:08:13;;;;;;;105.35;59.25;;;15.60;77.20;;;;;;4992313;28;90034;-78
2023/04/19 08:10:39;;;;;;;106.30;58.60;;;15.60;77.00;;;;;;4996830;28;89642;-77
2023/04/19 08:13:04;;;;;;;107.43;59.63;;;15.60;77.10;;;;;;4997053;28;95063;-79
2023/04/19 08:15:30;;;;;;;105.22;59.10;;;15.70;77.20;;;;;;4997409;28;95151;-80
2023/04/19 08:17:56;;;;;;;108.15;59.88;;;15.70;76.90;;;;;;4994167;28;90036;-81
2023/04/19 08:20:22;;;;;;;103.18;58.58;;;15.70;76.90;;;;;;4997267;28;90219;-81
2023/04/19 08:22:47;;;;;;;109.65;59.10;;;15.70;77.20;;;;;;4991966;28;92830;-80
2023/04/19 08:25:13;;;;;;;107.50;58.95;;;15.70;77.50;;;;;;4992530;28;94269;-79
2023/04/19 08:27:39;;;;;;;104.07;58.45;;;15.70;77.60;;;;;;4992831;28;90662;-83
2023/04/19 08:30:06;;;;;;;105.97;58.58;;;15.70;77.90;;;;;;4999360;28;88908;-79
2023/04/19 08:32:32;;;;;;;105.57;58.97;;;15.70;78.00;;;;;;4999695;28;91283;-78
2023/04/19 08:34:59;;;;;;;105.18;58.63;;;15.70;78.00;;;;;;5001358;28;94148;-80
2023/04/19 08:37:25;;;;;;;106.47;58.83;;;15.80;77.00;;;;;;4998067;28;92053;-80
2023/04/19 08:39:51;;;;;;;104.70;59.08;;;15.80;76.40;;;;;;4997540;28;89310;-80
2023/04/19 08:42:18;;;;;;;112.32;59.75;;;15.90;76.30;;;;;;5000194;28;90259;-80
2023/04/19 08:44:45;;;;;;;105.60;58.72;;;15.90;75.90;;;;;;4999762;28;89940;-82
2023/04/19 08:47:11;;;;;;;110.32;58.72;;;15.90;75.90;;;;;;4998967;28;89998;-79
2023/04/19 08:49:38;;;;;;;106.70;58.47;;;15.90;75.90;;;;;;4999220;28;90459;-81
2023/04/19 08:52:07;;;;;;;106.78;58.45;;;16.00;76.10;;;;;;5015165;27;93752;-78
2023/04/19 08:54:34;;;;;;;107.60;58.88;;;16.00;76.30;;;;;;4999494;28;93436;-83
2023/04/19 08:57:02;;;;;;;104.40;57.78;;;16.00;76.10;;;;;;4994794;28;90146;-80
2023/04/19 08:59:29;;;;;;;113.20;59.05;;;16.00;76.30;;;;;;4998948;28;90215;-82
2023/04/19 09:02:01;;;;;;;103.18;57.63;;;16.10;76.30;;;;;;4999753;28;94142;-82
2023/04/19 09:04:27;;;;;;;105.70;58.30;;;16.10;76.60;;;;;;4997547;28;94148;-78
2023/04/19 09:06:53;;;;;;;103.53;58.08;;;16.10;76.40;;;;;;4998584;28;89213;-78
2023/04/19 09:09:25;;;;;;;107.03;57.85;;;16.10;76.30;;;;;;4996497;28;89528;-79
2023/04/19 09:11:51;;;;;;;106.93;57.45;;;16.10;75.90;;;;;;5005171;28;92533;-81
2023/04/19 09:14:19;;;;;;;101.82;57.45;;;16.10;75.50;;;;;;5002433;28;92533;-78
2023/04/19 09:16:45;;;;;;;103.78;57.58;;;16.20;75.00;;;;;;4998711;28;89579;-77
2023/04/19 09:19:11;;;;;;;103.35;57.08;;;16.20;74.40;;;;;;5006103;28;89221;-79
2023/04/19 09:21:38;;;;;;;102.38;56.58;;;16.20;74.10;;;;;;5002981;28;94013;-79
2023/04/19 09:24:05;;;;;;;103.85;56.83;;;16.20;73.90;;;;;;5000853;28;90830;-79
2023/04/19 09:26:31;;;;;;;104.63;57.28;;;16.20;74.30;;;;;;5016513;27;90207;-78
2023/04/19 09:29:07;;;;;;;104.43;57.13;;;16.20;74.70;;;;;;5004677;28;89767;-78
2023/04/19 09:31:34;;;;;;;104.28;56.10;;;16.30;74.90;;;;;;5006854;28;93561;-78
2023/04/19 09:34:17;;;;;;;104.18;56.88;;;16.30;74.90;;;;;;4997992;28;90837;-79
2023/04/19 09:36:43;;;;;;;104.40;56.75;;;16.30;74.90;;;;;;4996413;28;92341;-80
2023/04/19 09:39:10;;;;;;;101.85;56.40;;;16.30;75.10;;;;;;5000734;28;89920;-80
2023/04/19 09:41:50;;;;;;;103.00;56.47;;;16.30;75.10;;;;;;4996359;28;90005;-79
2023/04/19 09:44:16;;;;;;;103.35;56.72;;;16.40;75.10;;;;;;5012132;27;92727;-81
2023/04/19 09:46:44;;;;;;;103.70;56.65;;;16.40;75.00;;;;;;5000744;28;90155;-79
2023/04/19 09:49:14;;;;;;;103.43;56.65;;;16.40;75.00;;;;;;4996285;28;89725;-79
2023/04/19 09:51:40;;;;;;;103.20;56.38;;;16.40;75.50;;;;;;4995598;28;94107;-79
2023/04/19 09:54:07;;;;;;;105.50;56.45;;;16.40;75.20;;;;;;4996992;28;93763;-81
2023/04/19 09:56:35;;;;;;;103.03;56.08;;;16.50;75.40;;;;;;4997740;28;90164;-79
2023/04/19 09:59:05;;;;;;;105.47;56.30;;;16.50;75.40;;;;;;5002980;28;89450;-80
2023/04/19 10:01:35;;;;;;;103.60;56.35;;;16.50;75.30;;;;;;4998952;28;92356;-81
2023/04/19 10:04:04;;;;;;;103.32;56.22;;;16.50;75.20;;;;;;5002074;28;93734;-79
2023/04/19 10:06:31;;;;;;;101.28;55.90;;;16.50;74.90;;;;;;5011447;27;90162;-79
2023/04/19 10:09:01;;;;;;;104.97;56.13;;;16.50;74.70;;;;;;4998982;28;90107;-78
2023/04/19 10:11:35;;;;;;;103.53;55.65;;;16.50;74.60;;;;;;5000629;28;94492;-79
2023/04/19 10:14:07;;;;;;;101.30;55.90;;;16.50;74.40;;;;;;5001701;28;90367;-79
2023/04/19 10:16:33;;;;;;;101.00;55.38;;;16.50;75.10;;;;;;5001467;28;90753;-79
2023/04/19 10:19:01;;;;;;;101.53;55.35;;;16.50;74.20;;;;;;4998840;28;89874;-78
2023/04/19 10:21:28;;;;;;;100.90;55.85;;;16.50;73.90;;;;;;4993400;28;91712;-81
2023/04/19 10:23:55;;;;;;;104.00;55.97;;;16.50;73.70;;;;;;4997597;28;94103;-80
2023/04/19 10:26:21;;;;;;;102.10;55.75;;;16.60;73.70;;;;;;4999588;28;93020;-79
2023/04/19 10:28:47;;;;;;;101.68;55.40;;;16.60;73.60;;;;;;4996907;28;90221;-78
2023/04/19 10:31:13;;;;;;;102.22;55.83;;;16.60;73.60;;;;;;4990487;28;90125;-81
2023/04/19 10:33:39;;;;;;;101.65;55.55;;;16.60;73.60;;;;;;4993337;28;92887;-79
2023/04/19 10:36:12;;;;;;;102.25;55.35;;;16.60;73.40;;;;;;5003045;28;89803;-79
2023/04/19 10:38:54;;;;;;;103.53;55.25;;;16.60;73.40;;;;;;4995951;28;91090;-79
2023/04/19 10:41:20;;;;;;;102.20;55.80;;;16.60;74.10;;;;;;5007552;27;93959;-79
2023/04/19 10:43:59;;;;;;;105.18;55.63;;;16.60;73.40;;;;;;4996580;28;93537;-78
2023/04/19 10:46:27;;;;;;;103.82;55.65;;;16.60;73.50;;;;;;4995820;28;92186;-82
2023/04/19 10:48:59;;;;;;;105.07;55.60;;;16.60;73.60;;;;;;4994920;28;90458;-80
2023/04/19 10:51:37;;;;;;;101.45;55.30;;;16.60;73.60;;;;;;4993626;28;93225;-82
2023/04/19 10:54:04;;;;;;;106.40;55.72;;;16.70;73.50;;;;;;4995691;28;89538;-84
2023/04/19 10:56:33;;;;;;;103.85;54.80;;;16.70;73.60;;;;;;4999045;28;92601;-78
2023/04/19 11:01:39;;;;;;;103.00;55.45;;;16.70;74.10;;;;;;4994838;28;89939;-80
2023/04/19 11:04:08;;;;;;;102.13;55.35;;;16.80;74.30;;;;;;5010476;27;90736;-78
2023/04/19 11:06:36;;;;;;;105.53;55.75;;;16.70;74.40;;;;;;4998660;28;92497;-85
2023/04/19 11:09:04;;;;;;;105.43;55.88;;;16.70;74.50;;;;;;4994618;28;90275;-85
2023/04/19 11:11:39;;;;;;;101.93;55.25;;;16.70;74.60;;;;;;4995634;28;91143;-79
2023/04/19 11:14:07;;;;;;;103.45;55.38;;;16.80;74.60;;;;;;4993170;28;97840;-82
2023/04/19 11:16:33;;;;;;;100.95;54.88;;;16.80;74.60;;;;;;4991250;28;91570;-78
2023/04/19 11:18:58;;;;;;;101.35;55.53;;;16.80;74.40;;;;;;4996721;28;89503;-83
2023/04/19 11:21:24;;;;;;;105.90;55.63;;;16.80;74.80;;;;;;5003228;28;92363;-80
2023/04/19 11:24:06;;;;;;;101.13;55.42;;;16.80;74.70;;;;;;4999872;28;91749;-80
2023/04/19 11:26:32;;;;;;;101.47;55.55;;;16.80;74.90;;;;;;4992763;28;90407;-80
2023/04/19 11:28:57;;;;;;;102.90;55.53;;;16.80;75.10;;;;;;4996390;28;94780;-80
2023/04/19 11:31:24;;;;;;;104.90;55.42;;;16.80;75.20;;;;;;4991222;28;95195;-80
2023/04/19 11:33:50;;;;;;;102.90;55.83;;;16.80;74.80;;;;;;4996042;28;92182;-79
2023/04/19 11:36:16;;;;;;;105.15;55.35;;;16.90;74.60;;;;;;4999024;28;90259;-79
2023/04/19 11:38:46;;;;;;;101.50;55.58;;;16.90;74.60;;;;;;4997783;28;89749;-80
2023/04/19 11:41:12;;;;;;;105.30;55.65;;;16.90;74.50;;;;;;4993106;28;92358;-83
2023/04/19 11:43:38;;;;;;;107.75;55.60;;;16.90;74.50;;;;;;4993473;28;92916;-83
2023/04/19 11:46:05;;;;;;;103.85;55.17;;;17.00;74.10;;;;;;4991979;28;89493;-80
2023/04/19 11:48:31;;;;;;;101.65;55.25;;;16.90;74.20;;;;;;4992430;28;88716;-83
2023/04/19 11:50:58;;;;;;;103.15;55.38;;;16.90;74.00;;;;;;5008837;27;92587;-80
2023/04/19 11:53:26;;;;;;;104.38;55.85;;;16.90;74.20;;;;;;4990788;28;92214;-83
2023/04/19 11:55:53;;;;;;;104.57;55.63;;;17.00;74.20;;;;;;4989600;28;90490;-78
2023/04/19 11:58:35;;;;;;;102.53;55.30;;;17.00;74.10;;;;;;4998921;28;89927;-79
2023/04/19 12:01:08;;;;;;;104.70;55.60;;;17.00;74.00;;;;;;5009563;27;93719;-79
2023/04/19 12:03:38;;;;;;;103.95;55.05;;;17.00;73.80;;;;;;4997111;27;90799;-83
2023/04/19 12:06:09;;;;;;;106.53;55.60;;;17.00;73.80;;;;;;4995990;28;89573;-83
2023/04/19 12:08:36;;;;;;;105.72;55.28;;;17.00;73.80;;;;;;4998559;28;90263;-81
2023/04/19 12:11:03;;;;;;;102.10;55.00;;;17.00;73.80;;;;;;4998939;28;90944;-82
2023/04/19 12:13:30;;;;;;;108.55;55.60;;;17.00;74.40;;;;;;4998772;28;95412;-79
2023/04/19 12:15:56;;;;;;;106.00;55.22;;;17.10;73.70;;;;;;5008036;27;89859;-81
2023/04/19 12:18:22;;;;;;;105.60;55.42;;;17.10;73.40;;;;;;5002871;28;89365;-79
2023/04/19 12:20:49;;;;;;;104.30;55.28;;;17.10;73.50;;;;;;5012974;27;95155;-84